Flight Track Log - Related Links

Times and Time Zones

All times are in EDT time to prevent confusion due to time zone crossing. See the SQH87 flight status page for this flight to view local times or setup timezone preferences in your user account.

Time Position Orientation Groundspeed Altitude Reporting Facility
EDT Latitude Longitude Course Direction KTS MPH feet Rate Location/Type
Sun 09:34:56 AM 36.2011 -93.0267 121° Southeast 244 281 5,800  Level Memphis Center
Sun 09:35:56 AM 36.1856 -92.9722 109° East 195 224 7,300 1,450 Climbing Memphis Center
Sun 09:36:56 AM 36.1678 -92.9150 111° Southeast 174 200 8,700 1,350 Climbing Memphis Center
Sun 09:37:56 AM 36.1483 -92.8528 111° Southeast 176 203 10,000 1,250 Climbing Memphis Center
Sun 09:38:56 AM 36.1286 -92.7906 111° Southeast 181 208 11,200 1,300 Climbing Memphis Center
Sun 09:39:00 AM 36.1401 -92.8235 112° Southeast  Level Estimated
Sun 09:39:56 AM 36.1050 -92.7256 114° Southeast 197 227 12,600  Level Memphis Center
Sun 09:40:56 AM 36.0853 -92.6556 109° East 203 234 13,800 1,150 Climbing Memphis Center
Sun 09:41:56 AM 36.0636 -92.5883 112° Southeast 208 239 14,900 1,100 Climbing Memphis Center
Sun 09:42:56 AM 36.0400 -92.5158 112° Southeast 214 246 16,000 1,100 Climbing Memphis Center
Sun 09:43:56 AM 36.0181 -92.4458 111° Southeast 214 246 17,100 1,000 Climbing Memphis Center
Sun 09:44:56 AM 35.9944 -92.3761 113° Southeast 214 246 18,000 850 Climbing Memphis Center
Sun 09:45:56 AM 35.9706 -92.3011 111° Southeast 214 246 18,800 500 Climbing Memphis Center
Sun 09:46:56 AM 35.9444 -92.2236 113° Southeast 219 252 19,000 100 Climbing Memphis Center
Sun 09:47:56 AM 35.9167 -92.1383 112° Southeast 239 275 19,000  Level Memphis Center
Sun 09:48:56 AM 35.8867 -92.0506 113° Southeast 262 302 19,000  Level Memphis Center
Sun 09:49:56 AM 35.8586 -91.9603 111° Southeast 273 314 19,000  Level Memphis Center
Sun 09:50:56 AM 35.8283 -91.8703 113° Southeast 278 320 19,000  Level Memphis Center
Sun 09:51:56 AM 35.7983 -91.7750 111° Southeast 284 327 19,000  Level Memphis Center
Sun 09:52:56 AM 35.7681 -91.6847 112° Southeast 284 327 19,000  Level Memphis Center
Sun 09:53:56 AM 35.7375 -91.5922 112° Southeast 284 327 19,000  Level Memphis Center
Sun 09:54:56 AM 35.7072 -91.5050 113° Southeast 284 327 19,000  Level Memphis Center
Sun 09:55:56 AM 35.6828 -91.4306 112° Southeast 284 327 19,000 -600 Level Memphis Center
Sun 09:56:56 AM 35.6461 -91.3228 113° Southeast 296 341 17,800 -1,250 Descending Memphis Center
Sun 09:57:56 AM 35.6094 -91.2150 113° Southeast 302 348 16,500 -1,350 Descending Memphis Center
Sun 09:58:56 AM 35.5767 -91.1178 112° Southeast 314 361 15,100 -1,450 Descending Memphis Center
Sun 09:59:56 AM 35.5439 -91.0206 112° Southeast 309 356 13,600 -1,450 Descending Memphis Center
Sun 10:00:56 AM 35.5131 -90.9283 112° Southeast 296 341 12,200 -1,400 Descending Memphis Center
Sun 10:01:56 AM 35.4842 -90.8414 112° Southeast 283 326 10,800 -1,300 Descending Memphis Center
Sun 10:02:56 AM 35.4553 -90.7622 114° Southeast 265 305 9,600 -1,350 Descending Memphis Center
Sun 10:03:56 AM 35.4303 -90.6958 115° Southeast 229 264 8,100 -1,000 Descending Memphis Center
Sun 10:04:56 AM 35.4139 -90.6297 107° East 206 237 7,600 -950 Descending Memphis Center
Sun 10:05:56 AM 35.3931 -90.5481 107° East 227 261 6,200 -800 Descending Memphis Center
Sun 10:06:56 AM 35.3767 -90.4792 106° East 238 274 6,000 -100 Descending Memphis Center
Sun 10:07:56 AM 35.3578 -90.4028 107° East 233 268 6,000  Level Memphis Center
Sun 10:08:56 AM 35.3369 -90.3264 108° East 227 261 6,000 -200 Level Memphis Center
Sun 10:09:56 AM 35.3181 -90.2503 107° East 227 261 5,600 -550 Descending Memphis Center
Sun 10:10:56 AM 35.2972 -90.1714 108° East 232 267 4,900 -700 Descending Memphis Center
Sun 10:11:56 AM 35.2719 -90.0825 109° East 247 284 4,200 -650 Descending Memphis Center
Sun 10:12:56 AM 35.2425 -90.0164 119° Southeast 239 275 3,600 -701 Descending Memphis Center
Sun 10:13:13 AM 35.2333 -90.0000 124° Southeast 156 180 3,300 -468 Descending KMEM
Sun 10:14:13 AM 35.1833 -89.9833 165° South 170 196 3,000 -600 Descending KMEM
Sun 10:15:13 AM 35.1500 -89.9667 158° South 144 166 2,100 -810 Descending KMEM
Sun 10:16:19 AM 35.1000 -89.9667 180° South 146 168 1,300 -762 Descending KMEM
Sun 10:17:19 AM 35.0667 -89.9667 180° South 130 150 500 -800 Descending KMEM
Sun 10:19:00 AM 35.0424 -89.9767 175° South  Level Estimated
Sun 10:26:00 AM 35.0424 -89.9767 175° South  Level Estimated
Sun 10:27:00 AM 35.0424 -89.9767 175° South  Level Estimated
Sun 10:28:00 AM 35.0424 -89.9767 175° South  Level Estimated
Sun 10:29:00 AM 35.0424 -89.9767 175° South  Level Estimated
Sun 10:30:00 AM 35.0424 -89.9767 175° South  Level Estimated
Sun 10:31:00 AM 35.0424 -89.9767 175° South  Level Estimated
Sun 10:32:00 AM 35.0424 -89.9767 175° South  Level Estimated
Sun 10:33:00 AM 35.0424 -89.9767 175° South  Level Estimated

Login

Don't have an account? Register now (free) for customized features, flight alerts, and more!